createdAt,value
2023-03-31T11:31:46.307Z,12.40
2023-03-31T11:34:29.289Z,12.00
2023-03-31T11:37:41.749Z,11.20
2023-03-31T11:40:26.024Z,10.60
2023-03-31T11:42:58.908Z,10.20
2023-03-31T11:45:33.037Z,10.20
2023-03-31T11:48:08.192Z,10.20
2023-03-31T11:50:40.199Z,10.30
2023-03-31T11:53:16.846Z,10.30
2023-03-31T14:55:49.782Z,8.70
2023-03-31T14:58:28.668Z,8.80
2023-03-31T15:00:57.500Z,8.60
2023-03-31T15:03:27.880Z,8.60
2023-03-31T15:05:59.983Z,8.40
2023-03-31T15:08:31.452Z,8.60
2023-03-31T15:13:46.958Z,8.80
2023-03-31T15:16:29.762Z,9.40
2023-03-31T15:19:02.835Z,10.30
2023-03-31T15:21:36.022Z,10.80
2023-03-31T15:24:06.688Z,11.30
2023-03-31T15:26:42.149Z,11.80
2023-03-31T15:29:18.958Z,12.00
2023-03-31T15:31:52.902Z,12.30
2023-03-31T15:34:26.372Z,12.70
2023-03-31T15:36:57.403Z,12.60
2023-03-31T15:39:31.144Z,12.60
2023-03-31T15:42:02.665Z,12.60
2023-03-31T15:44:47.334Z,12.90
2023-03-31T15:47:19.356Z,12.40
2023-03-31T15:49:54.298Z,10.70
2023-03-31T15:52:33.359Z,12.00
2023-03-31T15:55:02.993Z,11.90
2023-03-31T15:57:37.381Z,11.60
2023-03-31T16:00:30.215Z,11.80
2023-03-31T16:03:00.255Z,11.90
2023-03-31T16:08:31.888Z,12.00
2023-03-31T16:11:07.916Z,12.00
2023-03-31T16:13:51.317Z,12.20
2023-03-31T16:16:25.604Z,12.70
2023-03-31T16:19:04.643Z,12.90
2023-03-31T16:21:41.449Z,13.10
2023-03-31T16:24:10.773Z,13.10
2023-03-31T16:26:39.671Z,13.00
2023-03-31T16:29:11.526Z,13.00
2023-03-31T16:31:43.381Z,12.80
2023-03-31T16:34:13.361Z,12.60
2023-03-31T16:36:41.461Z,11.80
2023-03-31T16:39:10.573Z,12.60
2023-03-31T16:41:42.937Z,12.00
2023-03-31T16:57:36.726Z,11.80
2023-03-31T17:00:08.973Z,11.80
2023-03-31T17:02:39.619Z,11.60
2023-03-31T17:05:13.815Z,11.00
2023-03-31T17:07:45.086Z,9.80
2023-03-31T17:10:15.265Z,9.20
2023-03-31T17:12:46.687Z,8.80
2023-03-31T17:15:17.545Z,8.40
2023-03-31T17:17:48.371Z,8.20
2023-03-31T17:20:19.331Z,8.10
2023-03-31T17:22:48.783Z,7.80
2023-03-31T17:27:50.540Z,7.30
2023-03-31T17:30:20.111Z,7.90
2023-03-31T17:32:51.498Z,7.80
2023-03-31T17:35:22.807Z,7.80
2023-03-31T17:37:54.874Z,7.70
2023-03-31T17:40:37.248Z,7.60
2023-03-31T17:43:10.573Z,6.20
2023-03-31T17:45:39.836Z,7.60
2023-03-31T17:48:09.976Z,7.70
2023-03-31T17:50:39.452Z,7.90
2023-03-31T17:53:09.456Z,7.70
2023-03-31T17:56:02.699Z,7.80
2023-03-31T17:58:33.959Z,7.80
2023-03-31T18:01:02.669Z,7.90
2023-03-31T18:03:31.573Z,8.00
2023-03-31T18:06:06.740Z,7.90
2023-03-31T18:08:36.782Z,8.00
2023-03-31T18:11:10.643Z,8.10
2023-03-31T18:14:17.166Z,7.70
2023-03-31T18:16:49.246Z,8.00
2023-03-31T18:19:26.130Z,8.20
2023-03-31T18:21:56.663Z,8.20
2023-03-31T18:24:25.621Z,8.10
2023-03-31T18:26:55.691Z,8.10
2023-03-31T18:29:24.568Z,8.10
2023-03-31T18:31:57.439Z,8.20
2023-03-31T18:34:27.476Z,6.90
2023-03-31T18:36:55.823Z,8.20
2023-03-31T18:39:24.223Z,8.40
2023-03-31T18:41:53.594Z,8.20
2023-03-31T18:44:21.778Z,8.20
2023-03-31T18:46:49.970Z,8.50
2023-03-31T18:49:20.958Z,8.10
2023-03-31T18:51:49.334Z,8.00
2023-03-31T18:54:18.076Z,8.10
2023-03-31T18:56:46.508Z,8.10
2023-03-31T18:59:15.405Z,8.20
2023-03-31T19:01:43.837Z,8.20
2023-03-31T19:04:14.935Z,8.50
2023-03-31T19:06:44.863Z,8.00
2023-03-31T19:09:13.157Z,10.60
2023-03-31T19:11:41.824Z,8.00
2023-03-31T19:14:10.349Z,8.10
2023-03-31T19:16:42.982Z,8.10
2023-03-31T19:19:11.656Z,8.00
2023-03-31T19:21:41.708Z,8.10
2023-03-31T19:24:14.410Z,8.10
2023-03-31T19:26:43.585Z,8.10
2023-03-31T19:29:12.032Z,8.20
2023-03-31T19:31:41.809Z,8.30
2023-03-31T19:34:12.868Z,8.00
2023-03-31T19:36:42.407Z,8.00
2023-03-31T19:39:13.107Z,8.10
2023-03-31T19:41:41.884Z,8.10
2023-03-31T19:44:10.072Z,8.10
2023-03-31T19:46:38.352Z,8.10
2023-03-31T19:49:13.806Z,8.10
2023-03-31T19:51:42.340Z,8.10
2023-03-31T19:54:13.782Z,8.00
2023-03-31T19:56:46.830Z,8.30
2023-03-31T19:59:15.342Z,8.30
2023-03-31T20:01:44.993Z,8.30
2023-03-31T20:04:17.310Z,8.40
2023-03-31T20:06:47.587Z,8.30
2023-03-31T20:09:22.119Z,8.20
2023-03-31T20:11:50.474Z,8.40
2023-03-31T20:14:19.618Z,8.40
2023-03-31T20:16:48.684Z,8.40
2023-03-31T20:19:16.860Z,8.40
2023-03-31T20:21:46.770Z,8.40
2023-03-31T20:24:27.945Z,8.50
2023-03-31T20:27:03.475Z,8.50
2023-03-31T20:29:32.798Z,8.50
2023-03-31T20:32:17.487Z,8.50
2023-03-31T20:34:46.196Z,8.50
2023-03-31T20:37:15.674Z,9.60
2023-03-31T20:39:45.496Z,8.60
2023-03-31T20:42:26.530Z,9.90
2023-03-31T20:44:54.679Z,8.60
2023-03-31T20:47:23.217Z,8.60
2023-03-31T20:49:51.468Z,8.70
2023-03-31T20:52:19.780Z,8.70
2023-03-31T20:54:47.941Z,8.80
2023-03-31T20:57:18.049Z,8.60
2023-03-31T20:59:46.297Z,8.80
2023-03-31T21:02:15.531Z,8.80
2023-03-31T21:04:43.902Z,8.70
2023-03-31T21:07:12.613Z,8.80
2023-03-31T21:09:41.375Z,8.70
2023-03-31T21:12:10.068Z,8.80
2023-03-31T21:14:39.817Z,8.70
2023-03-31T21:17:08.630Z,8.80
2023-03-31T21:19:37.284Z,8.90
2023-03-31T21:22:06.782Z,8.80
2023-03-31T21:24:37.475Z,9.00
2023-03-31T21:27:06.866Z,9.00
2023-03-31T21:29:38.815Z,8.90
2023-03-31T21:32:11.031Z,9.00
2023-03-31T21:34:40.305Z,10.00
2023-03-31T21:37:11.195Z,9.00
2023-03-31T21:39:40.942Z,8.90
2023-03-31T21:42:09.320Z,9.00
2023-03-31T21:44:38.566Z,8.90
2023-03-31T21:47:11.648Z,9.00
2023-03-31T21:49:40.275Z,8.90
2023-03-31T21:52:08.694Z,8.90
2023-03-31T21:54:51.409Z,8.90
2023-03-31T21:57:20.225Z,8.80
2023-03-31T21:59:48.498Z,8.90
2023-03-31T22:02:18.263Z,8.90
2023-03-31T22:04:46.935Z,9.30
2023-03-31T22:07:15.433Z,8.80
2023-03-31T22:09:45.774Z,8.70
2023-03-31T22:12:15.353Z,8.70
2023-03-31T22:14:48.028Z,8.70
2023-03-31T22:17:21.497Z,8.80
2023-03-31T22:19:50.702Z,8.60
2023-03-31T22:22:20.243Z,8.60
2023-03-31T22:24:48.535Z,8.60
2023-03-31T22:27:20.036Z,8.60
2023-03-31T22:29:50.233Z,8.60
2023-03-31T22:32:21.364Z,8.60
2023-03-31T22:34:50.784Z,8.60
2023-03-31T22:40:06.509Z,8.60
2023-03-31T22:42:37.838Z,8.50
2023-03-31T22:45:07.006Z,8.50
2023-03-31T22:47:42.439Z,8.50
2023-03-31T22:50:12.533Z,8.50
2023-03-31T22:52:41.854Z,8.60
2023-03-31T22:55:11.331Z,8.50
2023-03-31T22:57:40.445Z,8.50
2023-03-31T23:00:10.798Z,8.70
2023-03-31T23:02:43.235Z,8.50
2023-03-31T23:05:12.301Z,8.50
2023-03-31T23:07:40.436Z,8.70
2023-03-31T23:10:09.811Z,8.50
2023-03-31T23:12:38.519Z,8.50
2023-03-31T23:15:07.438Z,8.30
2023-03-31T23:17:36.645Z,8.50
2023-03-31T23:20:31.467Z,8.40
2023-03-31T23:23:12.104Z,8.40
2023-03-31T23:25:42.722Z,8.40
2023-03-31T23:28:28.543Z,8.30
2023-03-31T23:30:59.394Z,8.30
2023-03-31T23:33:30.214Z,8.30
2023-03-31T23:36:03.912Z,8.60
2023-03-31T23:38:32.519Z,8.50
2023-03-31T23:41:02.481Z,8.30
2023-03-31T23:43:32.643Z,8.30
2023-03-31T23:46:02.909Z,6.80
2023-03-31T23:48:31.556Z,8.10
2023-03-31T23:51:04.782Z,8.40
2023-03-31T23:53:47.219Z,8.10
2023-03-31T23:56:17.110Z,8.10
2023-03-31T23:58:45.842Z,8.10
